createdAt,value
2019-05-11T00:00:07.357Z,2.0624
2019-05-11T00:00:18.373Z,2.5752
2019-05-11T00:00:27.378Z,3.0460
2019-05-11T00:00:38.378Z,2.9394
2019-05-11T00:00:47.368Z,3.0069
2019-05-11T00:00:58.404Z,3.0464
2019-05-11T00:01:07.388Z,3.7617
2019-05-11T00:01:18.368Z,3.8640
2019-05-11T00:01:27.369Z,3.6623
2019-05-11T00:01:38.418Z,3.2389
2019-05-11T00:01:47.375Z,2.8231
2019-05-11T00:01:58.358Z,3.0679
2019-05-11T00:02:07.374Z,3.1032
2019-05-11T00:02:18.378Z,2.3180
2019-05-11T00:02:27.401Z,2.1680
2019-05-11T00:02:38.369Z,1.7601
2019-05-11T00:02:47.383Z,2.1940
2019-05-11T00:02:58.409Z,2.5468
2019-05-11T00:03:08.229Z,2.2809
2019-05-11T00:03:18.463Z,2.5455
2019-05-11T00:03:27.369Z,2.1860
2019-05-11T00:03:38.371Z,2.4382
2019-05-11T00:03:50.355Z,2.9627
2019-05-11T00:03:58.381Z,3.5585
2019-05-11T00:04:09.381Z,3.5334
2019-05-11T00:04:17.396Z,3.2757
2019-05-11T00:04:28.382Z,3.9020
2019-05-11T00:04:37.354Z,4.2941
2019-05-11T00:04:48.390Z,4.0487
2019-05-11T00:04:57.383Z,3.7022
2019-05-11T00:05:08.361Z,3.6217
2019-05-11T00:05:17.386Z,3.2957
2019-05-11T00:05:28.390Z,2.6701
2019-05-11T00:05:37.355Z,2.8142
2019-05-11T00:05:48.392Z,2.7084
2019-05-11T00:05:57.371Z,2.4400
2019-05-11T00:06:08.385Z,3.6798
2019-05-11T00:06:17.390Z,3.3855
2019-05-11T00:06:28.370Z,2.6038
2019-05-11T00:06:37.443Z,3.3340
2019-05-11T00:06:48.370Z,3.7810
2019-05-11T00:06:59.370Z,3.7196
2019-05-11T00:07:08.359Z,3.4476
2019-05-11T00:07:17.420Z,2.6232
2019-05-11T00:07:29.450Z,2.0096
2019-05-11T00:07:37.381Z,2.9781
2019-05-11T00:07:49.287Z,3.1600
2019-05-11T00:07:57.900Z,3.4162
2019-05-11T00:08:08.351Z,3.3574
2019-05-11T00:08:20.371Z,3.9832
2019-05-11T00:08:27.361Z,3.2836
2019-05-11T00:08:38.369Z,3.2816
2019-05-11T00:08:47.390Z,4.2961
2019-05-11T00:08:58.392Z,4.0004
2019-05-11T00:09:07.385Z,3.3360
2019-05-11T00:09:18.383Z,2.9751
2019-05-11T00:09:27.397Z,3.5693
2019-05-11T00:09:38.392Z,3.7890
2019-05-11T00:09:57.675Z,2.9246
2019-05-11T00:09:58.559Z,3.1469
2019-05-11T00:10:07.376Z,3.1599
2019-05-11T00:10:18.391Z,3.1806
2019-05-11T00:10:27.360Z,3.4402
2019-05-11T00:10:38.386Z,3.1178
2019-05-11T00:10:48.359Z,2.7523
2019-05-11T00:10:58.385Z,2.3295
2019-05-11T00:11:07.355Z,2.1988
2019-05-11T00:11:18.380Z,2.6851
2019-05-11T00:11:27.397Z,2.3832
2019-05-11T00:11:37.281Z,2.2299
2019-05-11T00:11:47.377Z,2.4358
2019-05-11T00:11:58.362Z,2.8792
2019-05-11T00:12:10.271Z,2.3582
2019-05-11T00:12:18.383Z,2.8046
2019-05-11T00:12:29.380Z,2.9402
2019-05-11T00:12:37.363Z,3.3246
2019-05-11T00:12:50.281Z,3.9025
2019-05-11T00:12:57.378Z,3.4991
2019-05-11T00:13:08.906Z,4.1041
2019-05-11T00:13:18.930Z,4.1760
2019-05-11T00:13:28.366Z,3.5740
2019-05-11T00:13:37.372Z,3.5237
2019-05-11T00:13:48.363Z,2.8904
2019-05-11T00:13:57.346Z,2.7341
2019-05-11T00:14:08.366Z,3.0905
2019-05-11T00:14:17.382Z,2.9088
2019-05-11T00:14:28.366Z,3.5887
2019-05-11T00:14:37.364Z,2.9813
2019-05-11T00:14:48.360Z,2.8813
2019-05-11T00:15:01.894Z,4.1183
2019-05-11T00:15:08.366Z,4.5390
2019-05-11T00:15:17.374Z,3.6945
2019-05-11T00:15:28.362Z,3.2855
2019-05-11T00:15:37.373Z,2.7552
2019-05-11T00:15:47.495Z,2.7776
2019-05-11T00:15:58.670Z,2.6957
2019-05-11T00:16:09.381Z,2.8821
2019-05-11T00:16:19.174Z,3.1233
2019-05-11T00:16:29.183Z,3.0845
2019-05-11T00:16:40.510Z,3.6467
2019-05-11T00:16:48.366Z,3.4877
2019-05-11T00:17:00.392Z,2.9547
2019-05-11T00:17:07.389Z,3.2902
2019-05-11T00:17:19.363Z,3.6719
2019-05-11T00:17:27.371Z,4.1474
2019-05-11T00:17:38.393Z,4.6895
2019-05-11T00:17:47.381Z,4.9571
2019-05-11T00:17:58.370Z,3.9016
2019-05-11T00:18:07.412Z,3.9510
2019-05-11T00:18:18.374Z,3.6835
2019-05-11T00:18:27.371Z,3.4639
2019-05-11T00:18:42.927Z,2.6047
2019-05-11T00:18:52.904Z,2.7021
2019-05-11T00:18:58.372Z,2.4336
2019-05-11T00:19:09.417Z,2.5840
2019-05-11T00:19:18.375Z,2.2802
2019-05-11T00:19:27.375Z,2.4844
2019-05-11T00:19:37.371Z,3.2907
2019-05-11T00:19:47.368Z,4.8455
2019-05-11T00:19:58.374Z,4.4378
2019-05-11T00:20:08.458Z,4.2021
2019-05-11T00:20:23.024Z,2.6930
2019-05-11T00:20:27.362Z,3.2609
2019-05-11T00:20:38.370Z,3.1472
2019-05-11T00:20:50.480Z,2.9721
2019-05-11T00:20:59.188Z,3.2278
2019-05-11T00:21:10.437Z,3.0465
2019-05-11T00:21:17.404Z,2.8849
2019-05-11T00:21:30.287Z,2.5123
2019-05-11T00:21:39.916Z,2.3403
2019-05-11T00:21:48.378Z,2.6783
2019-05-11T00:21:57.391Z,3.5640
2019-05-11T00:22:08.437Z,3.5825
2019-05-11T00:22:17.362Z,3.8377
2019-05-11T00:22:28.363Z,3.8279
2019-05-11T00:22:37.384Z,3.4857
2019-05-11T00:22:48.362Z,3.2377
2019-05-11T00:22:57.358Z,3.0794
2019-05-11T00:23:08.380Z,2.3621
2019-05-11T00:23:17.382Z,2.2982
2019-05-11T00:23:28.390Z,2.6973
2019-05-11T00:23:37.388Z,3.5821
2019-05-11T00:23:48.357Z,3.8198
2019-05-11T00:23:57.354Z,4.0170
2019-05-11T00:24:08.384Z,3.9520
2019-05-11T00:24:18.435Z,3.1181
2019-05-11T00:24:29.476Z,2.8351
2019-05-11T00:24:38.313Z,2.6510
2019-05-11T00:24:48.377Z,3.4515
2019-05-11T00:24:59.395Z,3.4305
2019-05-11T00:25:07.381Z,3.4155
2019-05-11T00:25:19.373Z,3.7022
2019-05-11T00:25:27.368Z,3.1868
2019-05-11T00:25:38.383Z,2.6908
2019-05-11T00:25:47.381Z,2.5093
2019-05-11T00:25:58.363Z,2.9882
2019-05-11T00:26:07.361Z,3.4746
2019-05-11T00:26:18.385Z,3.7543
2019-05-11T00:26:27.383Z,3.6293
2019-05-11T00:26:38.019Z,3.6732
2019-05-11T00:26:47.379Z,3.5119
2019-05-11T00:26:58.368Z,3.4705
2019-05-11T00:27:07.445Z,3.7314
2019-05-11T00:27:18.386Z,3.7927
2019-05-11T00:27:27.367Z,3.3663
2019-05-11T00:27:37.371Z,3.1726
2019-05-11T00:27:47.375Z,3.1028
2019-05-11T00:27:58.377Z,2.2769
2019-05-11T00:28:08.436Z,1.9950
2019-05-11T00:28:17.582Z,2.1597
2019-05-11T00:28:28.233Z,2.3302
2019-05-11T00:28:38.375Z,2.3877
2019-05-11T00:28:49.375Z,3.7693
2019-05-11T00:28:58.374Z,3.5743
2019-05-11T00:29:07.976Z,3.9433
2019-05-11T00:29:17.380Z,4.8511
2019-05-11T00:29:29.389Z,4.3361
2019-05-11T00:29:37.868Z,3.4452
2019-05-11T00:29:48.371Z,2.7145
2019-05-11T00:29:57.392Z,2.4420
2019-05-11T00:30:08.358Z,2.4770
2019-05-11T00:30:17.368Z,2.4536
2019-05-11T00:30:28.381Z,2.6567
2019-05-11T00:30:37.375Z,2.5527
2019-05-11T00:30:48.377Z,2.7885
2019-05-11T00:30:57.377Z,2.3945
2019-05-11T00:31:08.372Z,1.4663
2019-05-11T00:31:17.371Z,6.2088
2019-05-11T00:31:27.923Z,5.8081
2019-05-11T00:31:37.380Z,5.3011
2019-05-11T00:31:48.399Z,3.9638
2019-05-11T00:31:58.478Z,3.0929
2019-05-11T00:32:07.580Z,2.2560
2019-05-11T00:32:17.355Z,2.2880
2019-05-11T00:32:28.377Z,2.5377
2019-05-11T00:32:39.398Z,2.8741
2019-05-11T00:32:48.398Z,2.4177
2019-05-11T00:33:02.858Z,3.6453
2019-05-11T00:33:07.379Z,3.8376
2019-05-11T00:33:19.344Z,3.1448
2019-05-11T00:33:27.415Z,2.7110
2019-05-11T00:33:38.392Z,2.4616
2019-05-11T00:33:47.375Z,2.5406
2019-05-11T00:33:58.393Z,2.9849
2019-05-11T00:34:11.898Z,2.7895
2019-05-11T00:34:18.368Z,2.4278
2019-05-11T00:34:27.370Z,2.4362
2019-05-11T00:34:38.390Z,2.6937
2019-05-11T00:34:47.364Z,2.2773
2019-05-11T00:34:58.401Z,2.1361
2019-05-11T00:35:08.365Z,2.3374
2019-05-11T00:35:18.376Z,3.1396
2019-05-11T00:35:27.356Z,3.8502
2019-05-11T00:35:38.381Z,3.7521
2019-05-11T00:35:47.383Z,3.2556
2019-05-11T00:35:58.379Z,2.6742
2019-05-11T00:36:08.408Z,2.7520
2019-05-11T00:36:18.373Z,2.2983
2019-05-11T00:36:28.346Z,2.6287
2019-05-11T00:36:38.363Z,2.4693
2019-05-11T00:36:50.209Z,2.8819
2019-05-11T00:36:59.381Z,2.3761
2019-05-11T00:37:09.361Z,2.2899
2019-05-11T00:37:17.371Z,2.4748
2019-05-11T00:37:28.362Z,3.0367
2019-05-11T00:37:37.360Z,2.9443
2019-05-11T00:37:48.383Z,2.3084
2019-05-11T00:37:57.379Z,2.0808
2019-05-11T00:38:08.374Z,2.3648
2019-05-11T00:38:17.387Z,1.9988
2019-05-11T00:38:28.373Z,2.8017
2019-05-11T00:38:37.641Z,3.1333
2019-05-11T00:38:48.385Z,2.3548
2019-05-11T00:38:57.373Z,2.3573
2019-05-11T00:39:08.377Z,2.1934
2019-05-11T00:39:17.374Z,1.8226
2019-05-11T00:39:28.384Z,1.4566
2019-05-11T00:39:37.354Z,1.5668
2019-05-11T00:39:47.868Z,2.2883
2019-05-11T00:40:13.325Z,2.6862
2019-05-11T00:40:14.463Z,2.9376
2019-05-11T00:40:17.365Z,2.9331
2019-05-11T00:40:28.354Z,2.9692
2019-05-11T00:40:37.378Z,2.3250
2019-05-11T00:40:48.364Z,2.9475
2019-05-11T00:40:59.360Z,3.4518
2019-05-11T00:41:08.382Z,3.1144
2019-05-11T00:41:20.233Z,2.2841
2019-05-11T00:41:27.389Z,1.8926
2019-05-11T00:41:38.390Z,1.9422
2019-05-11T00:41:47.384Z,2.8285
2019-05-11T00:41:58.358Z,2.8667
2019-05-11T00:42:07.359Z,2.7895
2019-05-11T00:42:18.359Z,2.3064
2019-05-11T00:42:27.375Z,2.2655
2019-05-11T00:42:38.386Z,2.9654
2019-05-11T00:42:47.401Z,2.7044
2019-05-11T00:42:58.375Z,2.3130
2019-05-11T00:43:07.381Z,2.3792
2019-05-11T00:43:18.376Z,3.2146
2019-05-11T00:43:31.945Z,2.7357
2019-05-11T00:43:38.366Z,2.9206
2019-05-11T00:43:47.371Z,3.6890
2019-05-11T00:43:58.375Z,3.5624
2019-05-11T00:44:09.358Z,3.3780
2019-05-11T00:44:18.380Z,3.2192
2019-05-11T00:44:28.322Z,3.5158
2019-05-11T00:44:38.356Z,3.9230
2019-05-11T00:44:47.495Z,3.3822
2019-05-11T00:44:59.301Z,3.3479
2019-05-11T00:45:09.372Z,3.9527
2019-05-11T00:45:18.409Z,3.5654
2019-05-11T00:45:30.290Z,3.3367
2019-05-11T00:45:37.387Z,2.9820
2019-05-11T00:45:49.380Z,2.4457
2019-05-11T00:45:57.455Z,3.0676
2019-05-11T00:46:08.370Z,3.8848
2019-05-11T00:46:17.393Z,3.4356
2019-05-11T00:46:28.383Z,3.3322
2019-05-11T00:46:37.422Z,2.4263
2019-05-11T00:46:48.384Z,2.7216
2019-05-11T00:46:57.406Z,2.4854
2019-05-11T00:47:08.371Z,2.2847
2019-05-11T00:47:17.383Z,2.0118
2019-05-11T00:47:32.901Z,3.0345
2019-05-11T00:47:37.373Z,3.8850
2019-05-11T00:47:48.371Z,4.0782
2019-05-11T00:47:57.368Z,3.7268
2019-05-11T00:48:08.429Z,3.1477
2019-05-11T00:48:18.804Z,4.2027
2019-05-11T00:48:27.339Z,3.5636
2019-05-11T00:48:37.430Z,3.0278
2019-05-11T00:48:48.374Z,3.3851
2019-05-11T00:48:58.308Z,3.4218
2019-05-11T00:49:09.599Z,2.5753
2019-05-11T00:49:20.391Z,1.5146
2019-05-11T00:49:28.358Z,1.9731
2019-05-11T00:49:39.412Z,2.6797
2019-05-11T00:49:47.353Z,2.8060
2019-05-11T00:49:59.393Z,2.6062
2019-05-11T00:50:07.375Z,2.4483
2019-05-11T00:50:18.386Z,2.7174
2019-05-11T00:50:39.509Z,2.7567
2019-05-11T00:50:40.194Z,2.5022
2019-05-11T00:50:47.361Z,2.4125
2019-05-11T00:50:58.372Z,2.2142
2019-05-11T00:51:07.376Z,2.4453
2019-05-11T00:51:18.360Z,3.3244
2019-05-11T00:51:27.363Z,3.8128
2019-05-11T00:51:38.366Z,2.6877
2019-05-11T00:51:47.410Z,1.9688
2019-05-11T00:51:58.356Z,2.1771
2019-05-11T00:52:07.366Z,2.1947
2019-05-11T00:52:18.369Z,2.6745
2019-05-11T00:52:27.399Z,2.7807
2019-05-11T00:52:37.796Z,3.4115
2019-05-11T00:52:47.384Z,2.8627
2019-05-11T00:52:57.297Z,2.5267
2019-05-11T00:53:07.369Z,2.0402
2019-05-11T00:53:18.365Z,1.8445
2019-05-11T00:53:27.383Z,1.5321
2019-05-11T00:53:38.413Z,1.7467
2019-05-11T00:53:48.475Z,1.8842
2019-05-11T00:53:59.290Z,2.3021
2019-05-11T00:54:09.377Z,1.9004
2019-05-11T00:54:18.387Z,2.5498
2019-05-11T00:54:30.293Z,2.6485
2019-05-11T00:54:37.376Z,3.1333
2019-05-11T00:54:49.348Z,3.3925
2019-05-11T00:54:57.354Z,3.2612
2019-05-11T00:55:08.388Z,2.9700
2019-05-11T00:55:17.367Z,3.2942
2019-05-11T00:55:28.371Z,3.4495
2019-05-11T00:55:37.388Z,3.2283
2019-05-11T00:55:48.380Z,3.0285
2019-05-11T00:55:57.381Z,3.6004
2019-05-11T00:56:08.364Z,3.7582
2019-05-11T00:56:17.390Z,3.2002
2019-05-11T00:56:28.370Z,2.6444
2019-05-11T00:56:37.386Z,3.0830
2019-05-11T00:56:48.385Z,4.5131
2019-05-11T00:56:57.356Z,4.2055
2019-05-11T00:57:08.378Z,3.2315
2019-05-11T00:57:17.384Z,2.7989
2019-05-11T00:57:28.395Z,2.6975
2019-05-11T00:57:37.015Z,3.0019
2019-05-11T00:57:48.363Z,2.7688
2019-05-11T00:57:57.377Z,2.1937
2019-05-11T00:58:08.375Z,1.8863
2019-05-11T00:58:18.317Z,1.4512
2019-05-11T00:58:28.375Z,1.5472
2019-05-11T00:58:39.364Z,2.1926
2019-05-11T00:58:50.954Z,2.5241
2019-05-11T00:59:00.416Z,3.2202
2019-05-11T00:59:20.884Z,3.1571
2019-05-11T00:59:21.748Z,2.4919
2019-05-11T00:59:27.375Z,2.4241
2019-05-11T00:59:38.355Z,2.3923
2019-05-11T00:59:47.359Z,2.2655
2019-05-11T00:59:58.373Z,3.1196
2019-05-11T01:00:07.385Z,3.8977
2019-05-11T01:00:18.364Z,3.3677
2019-05-11T01:00:27.374Z,3.1893
2019-05-11T01:00:38.380Z,2.6895
2019-05-11T01:00:47.376Z,2.8345
2019-05-11T01:00:58.389Z,2.2561
2019-05-11T01:01:07.358Z,1.6620
2019-05-11T01:01:18.368Z,1.8326
2019-05-11T01:01:27.367Z,2.0491
2019-05-11T01:01:37.784Z,2.3145
2019-05-11T01:01:47.396Z,3.0764
2019-05-11T01:01:57.332Z,3.0779
2019-05-11T01:02:07.374Z,3.5790
2019-05-11T01:02:17.578Z,3.6976
2019-05-11T01:02:27.364Z,3.8167
2019-05-11T01:02:38.374Z,4.2797
2019-05-11T01:02:49.358Z,3.0427
2019-05-11T01:02:58.364Z,2.5209
2019-05-11T01:03:09.371Z,2.6023
2019-05-11T01:03:17.354Z,2.5824
2019-05-11T01:03:28.384Z,2.8817
2019-05-11T01:03:37.361Z,2.6252
2019-05-11T01:03:48.380Z,2.8964
2019-05-11T01:03:57.376Z,3.7385
2019-05-11T01:04:08.386Z,4.0013
2019-05-11T01:04:17.415Z,3.1159
2019-05-11T01:04:28.393Z,2.5063
2019-05-11T01:04:37.402Z,2.4813
2019-05-11T01:04:48.387Z,2.2459
2019-05-11T01:04:57.385Z,2.8884
2019-05-11T01:05:08.433Z,3.0858
2019-05-11T01:05:17.368Z,3.2052
2019-05-11T01:05:28.356Z,3.1765
2019-05-11T01:05:37.393Z,4.4072
2019-05-11T01:05:48.380Z,4.6982
2019-05-11T01:05:57.368Z,4.5875
2019-05-11T01:06:08.375Z,3.7633
2019-05-11T01:06:19.383Z,3.3420
2019-05-11T01:06:28.382Z,3.8371
2019-05-11T01:06:40.245Z,3.7776
2019-05-11T01:06:47.392Z,3.3992
2019-05-11T01:06:58.401Z,3.0321
2019-05-11T01:07:07.381Z,2.3069
2019-05-11T01:07:18.394Z,2.6446
2019-05-11T01:07:27.386Z,3.0736
2019-05-11T01:07:38.379Z,2.0629
2019-05-11T01:07:47.364Z,2.0473
2019-05-11T01:07:58.372Z,2.4160
2019-05-11T01:08:07.389Z,2.8177
2019-05-11T01:08:18.028Z,3.0737
2019-05-11T01:08:27.372Z,2.3814
2019-05-11T01:08:38.370Z,1.7968
2019-05-11T01:08:47.369Z,2.0495
2019-05-11T01:08:58.508Z,1.6539
2019-05-11T01:09:07.393Z,1.7393
2019-05-11T01:09:18.382Z,2.0270
2019-05-11T01:09:27.381Z,2.2937
2019-05-11T01:09:37.389Z,2.6288
2019-05-11T01:09:49.371Z,2.1990
2019-05-11T01:09:57.256Z,2.3463
2019-05-11T01:10:21.745Z,3.2162
2019-05-11T01:10:25.674Z,3.0824
2019-05-11T01:10:41.133Z,2.8161
2019-05-11T01:10:42.693Z,2.4935
2019-05-11T01:10:47.367Z,2.1090
2019-05-11T01:10:58.363Z,1.7725
2019-05-11T01:11:09.360Z,2.0888
2019-05-11T01:11:18.373Z,1.9401
2019-05-11T01:11:29.356Z,2.2708
2019-05-11T01:11:39.258Z,3.0052
2019-05-11T01:11:49.376Z,3.2788
2019-05-11T01:11:57.386Z,3.5808
2019-05-11T01:12:10.916Z,3.0374
2019-05-11T01:12:17.368Z,3.1052
2019-05-11T01:12:28.359Z,3.3015
2019-05-11T01:12:37.371Z,3.7660
2019-05-11T01:12:48.390Z,2.4544
2019-05-11T01:13:01.867Z,2.2078
2019-05-11T01:13:08.383Z,2.7905
2019-05-11T01:13:17.391Z,3.2142
2019-05-11T01:13:28.373Z,4.0786
2019-05-11T01:13:37.380Z,3.5550
2019-05-11T01:13:48.361Z,2.5678
2019-05-11T01:13:57.377Z,2.3838
2019-05-11T01:14:08.361Z,2.5577
2019-05-11T01:14:17.940Z,2.8969
2019-05-11T01:14:28.376Z,3.1853
2019-05-11T01:14:37.371Z,3.4354
2019-05-11T01:14:48.421Z,3.7953
2019-05-11T01:14:58.934Z,2.7869
2019-05-11T01:15:08.395Z,2.1129
2019-05-11T01:15:18.268Z,2.1143
2019-05-11T01:15:27.590Z,1.9789
2019-05-11T01:15:37.440Z,2.2726
2019-05-11T01:15:48.369Z,2.3503
2019-05-11T01:16:00.397Z,2.6923
2019-05-11T01:16:08.408Z,1.9983
2019-05-11T01:16:19.368Z,1.8003
2019-05-11T01:16:27.379Z,2.5844
2019-05-11T01:16:39.367Z,2.2711
2019-05-11T01:16:47.392Z,2.9426
2019-05-11T01:16:58.360Z,3.0630
2019-05-11T01:17:07.366Z,3.0234
2019-05-11T01:17:18.380Z,2.4456
2019-05-11T01:17:27.384Z,2.5304
2019-05-11T01:17:38.385Z,1.8940
2019-05-11T01:17:47.395Z,1.5017
2019-05-11T01:17:58.378Z,1.1867
2019-05-11T01:18:07.368Z,1.1263
2019-05-11T01:18:18.379Z,2.0158
2019-05-11T01:18:27.413Z,1.9464
2019-05-11T01:18:38.378Z,2.4757
2019-05-11T01:18:47.378Z,2.6324
2019-05-11T01:18:58.368Z,3.1743
2019-05-11T01:19:07.380Z,2.4494
2019-05-11T01:19:18.362Z,1.4979
2019-05-11T01:19:29.387Z,2.1211
2019-05-11T01:19:38.356Z,2.6684
2019-05-11T01:19:48.391Z,2.6628
2019-05-11T01:19:57.578Z,1.7970
2019-05-11T01:20:07.382Z,2.0390
2019-05-11T01:20:19.440Z,2.2497
2019-05-11T01:20:29.360Z,1.9612
2019-05-11T01:20:38.355Z,2.0978
2019-05-11T01:20:50.417Z,2.3901
2019-05-11T01:20:59.912Z,2.3322
2019-05-11T01:21:09.375Z,2.0487
2019-05-11T01:21:17.381Z,2.5297
2019-05-11T01:21:28.360Z,1.9753
2019-05-11T01:21:37.354Z,1.9666
2019-05-11T01:21:48.375Z,1.7375
2019-05-11T01:21:57.387Z,2.2499
2019-05-11T01:22:08.379Z,2.4462
2019-05-11T01:22:17.376Z,2.3002
2019-05-11T01:22:28.375Z,1.6207
2019-05-11T01:22:37.379Z,2.3724
2019-05-11T01:22:48.448Z,3.2544
2019-05-11T01:22:57.371Z,3.4914
2019-05-11T01:23:08.362Z,3.1588
2019-05-11T01:23:17.378Z,2.6127
2019-05-11T01:23:27.809Z,2.4008
2019-05-11T01:23:37.378Z,2.6102
2019-05-11T01:23:48.387Z,1.9194
2019-05-11T01:23:58.814Z,2.4173
2019-05-11T01:24:08.395Z,2.7554
2019-05-11T01:24:18.308Z,3.0718
2019-05-11T01:24:27.596Z,4.2619
2019-05-11T01:24:37.380Z,3.8211
2019-05-11T01:24:49.322Z,2.8414
2019-05-11T01:24:57.369Z,2.9098
2019-05-11T01:25:08.406Z,3.3819
2019-05-11T01:25:20.336Z,3.3382
2019-05-11T01:25:28.375Z,3.5217
2019-05-11T01:25:39.366Z,2.7750
2019-05-11T01:25:47.378Z,3.0709
2019-05-11T01:25:59.364Z,3.0604
2019-05-11T01:26:07.378Z,3.0600
2019-05-11T01:26:18.390Z,2.7626
2019-05-11T01:26:31.937Z,2.0711
2019-05-11T01:26:38.362Z,2.0841
2019-05-11T01:26:47.378Z,1.8081
2019-05-11T01:26:58.374Z,2.0997
2019-05-11T01:27:07.368Z,2.9448
2019-05-11T01:27:18.361Z,3.3431
2019-05-11T01:27:27.390Z,4.3493
2019-05-11T01:27:38.382Z,4.2435
2019-05-11T01:27:47.368Z,3.7686
2019-05-11T01:27:58.383Z,3.0030
2019-05-11T01:28:07.371Z,2.4998
2019-05-11T01:28:18.387Z,2.2366
2019-05-11T01:28:27.378Z,2.6718
2019-05-11T01:28:37.803Z,2.2282
2019-05-11T01:28:47.365Z,2.5428
2019-05-11T01:28:58.393Z,2.9943
2019-05-11T01:29:07.379Z,2.8243
2019-05-11T01:29:18.355Z,2.8323
2019-05-11T01:29:27.359Z,2.7826
2019-05-11T01:29:38.404Z,2.8133
2019-05-11T01:29:47.371Z,2.9941
2019-05-11T01:29:59.403Z,3.4852
2019-05-11T01:30:09.384Z,3.0206
2019-05-11T01:30:17.375Z,2.6536
2019-05-11T01:30:29.385Z,2.9682
2019-05-11T01:30:38.867Z,2.9777
2019-05-11T01:30:48.363Z,2.7836
2019-05-11T01:30:57.377Z,2.6102
2019-05-11T01:31:11.158Z,4.0021
2019-05-11T01:31:17.377Z,4.4899
2019-05-11T01:31:32.891Z,3.3822
2019-05-11T01:31:37.394Z,2.9622
2019-05-11T01:31:48.371Z,2.4107
2019-05-11T01:31:57.377Z,2.0182
2019-05-11T01:32:07.967Z,2.0829
2019-05-11T01:32:17.369Z,2.4063
2019-05-11T01:32:28.378Z,1.8293
2019-05-11T01:32:37.393Z,1.8837
2019-05-11T01:32:48.402Z,1.9069
2019-05-11T01:32:57.367Z,2.8545
2019-05-11T01:33:07.272Z,2.9814
2019-05-11T01:33:17.372Z,3.2213
2019-05-11T01:33:28.381Z,2.7554
2019-05-11T01:33:39.319Z,3.1940
2019-05-11T01:33:48.422Z,4.0333
2019-05-11T01:33:57.383Z,3.4521
2019-05-11T01:34:09.342Z,2.4892
2019-05-11T01:34:22.926Z,2.5245
2019-05-11T01:34:28.397Z,2.5319
2019-05-11T01:34:40.227Z,2.6110
2019-05-11T01:34:47.399Z,2.2658
2019-05-11T01:34:59.389Z,2.9135
2019-05-11T01:35:07.359Z,2.7847
2019-05-11T01:35:18.406Z,2.8743
2019-05-11T01:35:30.283Z,3.7269
2019-05-11T01:35:38.418Z,3.7665
2019-05-11T01:35:50.886Z,3.3920
2019-05-11T01:35:58.404Z,3.3744
2019-05-11T01:36:07.367Z,3.6439
2019-05-11T01:36:18.386Z,3.3833
2019-05-11T01:36:27.362Z,2.4611
2019-05-11T01:36:38.382Z,2.3403
2019-05-11T01:36:47.363Z,2.1777
2019-05-11T01:36:58.390Z,2.1848
2019-05-11T01:37:09.377Z,3.3094
2019-05-11T01:37:18.356Z,3.4657
2019-05-11T01:37:27.363Z,3.8250
2019-05-11T01:37:37.272Z,3.6235
2019-05-11T01:37:47.391Z,2.9881
2019-05-11T01:37:58.368Z,3.2025
2019-05-11T01:38:08.938Z,3.6897
2019-05-11T01:38:17.604Z,3.3563
2019-05-11T01:38:27.359Z,4.2661
2019-05-11T01:38:39.397Z,3.8900
2019-05-11T01:38:49.366Z,3.9177
2019-05-11T01:38:58.370Z,3.8247
2019-05-11T01:39:10.390Z,3.7565
2019-05-11T01:39:19.961Z,2.9999
2019-05-11T01:39:29.381Z,3.9892
2019-05-11T01:39:38.887Z,3.7218
2019-05-11T01:39:48.385Z,3.1599
2019-05-11T01:39:57.385Z,3.5645
2019-05-11T01:40:11.006Z,3.2949
2019-05-11T01:40:17.409Z,3.0418
2019-05-11T01:40:28.378Z,2.2454
2019-05-11T01:40:37.370Z,3.4013
2019-05-11T01:40:58.155Z,4.3788
2019-05-11T01:40:59.023Z,3.6815
2019-05-11T01:41:08.370Z,2.9550
2019-05-11T01:41:17.389Z,3.2241
2019-05-11T01:41:28.376Z,3.3470
2019-05-11T01:41:37.361Z,3.3931
2019-05-11T01:41:48.387Z,3.1403
2019-05-11T01:41:57.388Z,3.1508
2019-05-11T01:42:08.385Z,3.0561
2019-05-11T01:42:17.378Z,2.9248
2019-05-11T01:42:28.368Z,3.6447
2019-05-11T01:42:37.395Z,3.0222
2019-05-11T01:42:52.933Z,2.4719
2019-05-11T01:42:57.370Z,2.2834
2019-05-11T01:43:07.344Z,2.3926
2019-05-11T01:43:18.377Z,2.9462
2019-05-11T01:43:28.386Z,2.9416
2019-05-11T01:43:40.357Z,2.6496
2019-05-11T01:43:48.899Z,2.7028
2019-05-11T01:44:00.906Z,2.6799
2019-05-11T01:44:07.383Z,2.6699
2019-05-11T01:44:18.376Z,2.6898
2019-05-11T01:44:27.372Z,3.3049
2019-05-11T01:44:38.372Z,3.8857
2019-05-11T01:44:47.359Z,4.1271
2019-05-11T01:44:58.382Z,3.9687
2019-05-11T01:45:11.899Z,3.9010
2019-05-11T01:45:18.380Z,3.4245
2019-05-11T01:45:27.384Z,2.7398
2019-05-11T01:45:38.386Z,2.4535
2019-05-11T01:45:47.384Z,2.6370
2019-05-11T01:45:58.386Z,2.2571
2019-05-11T01:46:07.371Z,2.9478
2019-05-11T01:46:18.354Z,2.9792
2019-05-11T01:46:27.358Z,3.5092
2019-05-11T01:46:38.376Z,3.2095
2019-05-11T01:46:47.421Z,3.5026
2019-05-11T01:46:58.372Z,2.8546
2019-05-11T01:47:10.200Z,2.1986
2019-05-11T01:47:18.367Z,1.7386
2019-05-11T01:47:29.538Z,2.3402
2019-05-11T01:47:37.382Z,2.0719
2019-05-11T01:47:50.320Z,1.8644
2019-05-11T01:47:57.361Z,3.2628
2019-05-11T01:48:07.876Z,3.6201
2019-05-11T01:48:17.372Z,3.6364
2019-05-11T01:48:28.384Z,3.4186
2019-05-11T01:48:37.367Z,3.2539
2019-05-11T01:48:48.399Z,3.0878
2019-05-11T01:48:57.372Z,2.6767
2019-05-11T01:49:08.005Z,2.1902
2019-05-11T01:49:17.372Z,2.9331
2019-05-11T01:49:28.386Z,3.4263
2019-05-11T01:49:37.405Z,3.6205
2019-05-11T01:49:48.386Z,4.0985
2019-05-11T01:49:57.908Z,3.9683
2019-05-11T01:50:08.370Z,3.0330
2019-05-11T01:50:18.880Z,2.2509
2019-05-11T01:50:28.377Z,2.3963
2019-05-11T01:50:37.385Z,2.6769
2019-05-11T01:50:49.361Z,2.8831
2019-05-11T01:50:59.379Z,3.2930
2019-05-11T01:51:08.370Z,2.8957
2019-05-11T01:51:20.313Z,2.8720
2019-05-11T01:51:27.364Z,3.1261
2019-05-11T01:51:38.374Z,2.4201
2019-05-11T01:51:47.379Z,2.0358
2019-05-11T01:51:58.386Z,2.0679
2019-05-11T01:52:07.368Z,1.8577
2019-05-11T01:52:18.372Z,2.1095
2019-05-11T01:52:27.364Z,2.8185
2019-05-11T01:52:38.387Z,3.0986
2019-05-11T01:52:47.373Z,2.8733
2019-05-11T01:52:58.365Z,3.0214
2019-05-11T01:53:07.363Z,3.8114
2019-05-11T01:53:18.393Z,3.1326
2019-05-11T01:53:27.380Z,4.3268
2019-05-11T01:53:38.385Z,3.8829
2019-05-11T01:53:48.202Z,3.5943
2019-05-11T01:53:58.400Z,3.3860
2019-05-11T01:54:08.311Z,3.2180
2019-05-11T01:54:17.861Z,2.6440
2019-05-11T01:54:27.395Z,2.4841
2019-05-11T01:54:39.276Z,2.6728
2019-05-11T01:54:47.366Z,2.4172
2019-05-11T01:54:58.374Z,1.6598
2019-05-11T01:55:09.363Z,1.8996
2019-05-11T01:55:18.362Z,1.9783
2019-05-11T01:55:30.433Z,2.1830
2019-05-11T01:55:37.384Z,2.3702
2019-05-11T01:55:50.907Z,1.8408
2019-05-11T01:55:57.408Z,2.1980
2019-05-11T01:56:08.364Z,2.2852
2019-05-11T01:56:17.363Z,2.5234
2019-05-11T01:56:28.384Z,1.8176
2019-05-11T01:56:37.387Z,2.0245
2019-05-11T01:56:48.399Z,2.0898
2019-05-11T01:56:57.374Z,2.5091
2019-05-11T01:57:08.370Z,3.2731
2019-05-11T01:57:17.359Z,3.0715
2019-05-11T01:57:28.389Z,3.0162
2019-05-11T01:57:37.379Z,3.7395
2019-05-11T01:57:48.362Z,3.9322
2019-05-11T01:57:57.377Z,4.5731
2019-05-11T01:58:08.389Z,4.0830
2019-05-11T01:58:17.383Z,3.4529
2019-05-11T01:58:27.281Z,2.4069
2019-05-11T01:58:37.451Z,2.4631
2019-05-11T01:58:48.363Z,2.4312
2019-05-11T01:58:58.276Z,2.6606
2019-05-11T01:59:08.371Z,3.1787
2019-05-11T01:59:19.375Z,3.8094
2019-05-11T01:59:29.231Z,4.1752
2019-05-11T01:59:40.464Z,3.3531
2019-05-11T01:59:47.359Z,2.3659
2019-05-11T01:59:58.375Z,3.2561
2019-05-11T02:00:07.386Z,3.2578
2019-05-11T02:00:18.381Z,2.8609
2019-05-11T02:00:27.382Z,2.8953
2019-05-11T02:00:38.391Z,3.9465
2019-05-11T02:00:47.388Z,3.6751
2019-05-11T02:00:58.353Z,4.5740
2019-05-11T02:01:07.389Z,4.8411
2019-05-11T02:01:18.389Z,4.1938
2019-05-11T02:01:27.362Z,3.7299
2019-05-11T02:01:38.385Z,3.4536
2019-05-11T02:01:47.376Z,2.7890
2019-05-11T02:01:57.332Z,2.5203
2019-05-11T02:02:07.374Z,2.9127
2019-05-11T02:02:17.613Z,3.5269
2019-05-11T02:02:27.367Z,2.9502
2019-05-11T02:02:39.388Z,3.2281
2019-05-11T02:02:49.376Z,2.7259
2019-05-11T02:02:58.381Z,3.4653
2019-05-11T02:03:09.385Z,3.6328
2019-05-11T02:03:17.399Z,2.8634
2019-05-11T02:03:30.900Z,1.8592
2019-05-11T02:03:37.392Z,1.8152
2019-05-11T02:03:48.362Z,3.0666
2019-05-11T02:03:57.382Z,3.1107
2019-05-11T02:04:08.384Z,2.6254
2019-05-11T02:04:17.384Z,2.2075
2019-05-11T02:04:28.384Z,2.1931
2019-05-11T02:04:37.405Z,1.8482
2019-05-11T02:04:50.924Z,2.0625